createdAt,value
2022-08-03T00:02:19.291Z,21.38
2022-08-03T00:04:46.988Z,27.55
2022-08-03T00:07:14.741Z,25.77
2022-08-03T00:09:42.296Z,19.42
2022-08-03T00:12:09.945Z,21.90
2022-08-03T00:14:37.510Z,21.60
2022-08-03T00:17:05.108Z,22.40
2022-08-03T00:19:32.698Z,21.45
2022-08-03T00:22:00.332Z,21.05
2022-08-03T00:24:27.995Z,22.38
2022-08-03T00:26:55.681Z,22.55
2022-08-03T00:29:23.207Z,23.00
2022-08-03T00:31:59.250Z,23.20
2022-08-03T00:34:30.945Z,22.80
2022-08-03T00:37:16.316Z,21.85
2022-08-03T00:39:46.281Z,22.08
2022-08-03T00:42:14.528Z,21.92
2022-08-03T00:44:44.056Z,21.42
2022-08-03T00:47:12.090Z,17.85
2022-08-03T00:49:41.332Z,21.38
2022-08-03T00:52:10.421Z,23.05
2022-08-03T00:54:38.969Z,22.20
2022-08-03T00:57:07.167Z,16.98
2022-08-03T00:59:34.764Z,15.63
2022-08-03T01:02:39.225Z,21.52
2022-08-03T01:05:09.201Z,22.48
2022-08-03T01:07:46.974Z,16.95
2022-08-03T01:10:37.860Z,19.80
2022-08-03T01:14:02.406Z,20.27
2022-08-03T01:16:04.318Z,22.92
2022-08-03T01:18:53.514Z,20.77
2022-08-03T01:21:32.718Z,20.40
2022-08-03T01:24:23.156Z,17.20
2022-08-03T01:26:53.382Z,20.48
2022-08-03T01:29:20.816Z,20.48
2022-08-03T01:32:52.496Z,21.75
2022-08-03T01:35:02.702Z,21.23
2022-08-03T01:37:51.944Z,21.02
2022-08-03T01:40:22.426Z,21.10
2022-08-03T01:42:51.655Z,19.73
2022-08-03T01:45:20.677Z,20.45
2022-08-03T01:47:49.810Z,15.40
2022-08-03T01:50:23.766Z,21.63
2022-08-03T01:52:53.209Z,20.77
2022-08-03T01:55:22.562Z,20.98
2022-08-03T01:58:05.857Z,20.55
2022-08-03T02:00:38.569Z,17.05
2022-08-03T02:03:08.416Z,16.23
2022-08-03T02:05:37.951Z,21.38
2022-08-03T02:08:07.776Z,15.98
2022-08-03T02:10:37.713Z,20.45
2022-08-03T02:13:08.392Z,20.63
2022-08-03T02:15:37.990Z,21.10
2022-08-03T02:18:07.867Z,21.30
2022-08-03T02:20:37.919Z,22.95
2022-08-03T02:23:07.281Z,22.70
2022-08-03T02:25:41.794Z,23.20
2022-08-03T02:28:14.333Z,17.95
2022-08-03T02:30:45.561Z,24.73
2022-08-03T02:33:19.774Z,21.85
2022-08-03T02:35:49.303Z,23.08
2022-08-03T02:38:20.221Z,22.00
2022-08-03T02:40:50.207Z,22.92
2022-08-03T02:43:21.417Z,23.00
2022-08-03T02:45:51.410Z,18.02
2022-08-03T02:48:23.424Z,21.70
2022-08-03T02:50:57.116Z,21.40
2022-08-03T02:53:27.380Z,24.40
2022-08-03T02:55:56.741Z,18.92
2022-08-03T02:58:25.928Z,23.30
2022-08-03T03:00:54.824Z,23.35
2022-08-03T03:03:23.197Z,24.52
2022-08-03T03:05:57.633Z,23.05
2022-08-03T03:08:28.660Z,23.20
2022-08-03T03:10:59.291Z,19.63
2022-08-03T03:13:30.308Z,25.42
2022-08-03T03:16:01.509Z,26.02
2022-08-03T03:18:34.239Z,26.05
2022-08-03T03:21:03.894Z,18.02
2022-08-03T03:23:34.086Z,20.70
2022-08-03T03:26:02.371Z,25.45
2022-08-03T03:28:31.792Z,23.70
2022-08-03T03:31:00.683Z,26.10
2022-08-03T03:33:28.714Z,19.42
2022-08-03T03:35:57.425Z,26.35
2022-08-03T03:38:24.952Z,22.20
2022-08-03T03:40:53.013Z,25.33
2022-08-03T03:43:22.807Z,25.38
2022-08-03T03:45:51.650Z,24.13
2022-08-03T03:48:19.792Z,25.60
2022-08-03T03:50:49.852Z,26.13
2022-08-03T03:53:17.414Z,20.45
2022-08-03T03:56:01.746Z,22.67
2022-08-03T03:58:32.169Z,26.70
2022-08-03T04:01:00.998Z,21.15
2022-08-03T04:03:28.744Z,27.55
2022-08-03T04:06:15.243Z,27.38
2022-08-03T04:09:01.252Z,22.15
2022-08-03T04:11:47.703Z,20.48
2022-08-03T04:14:22.351Z,21.27
2022-08-03T04:16:55.015Z,21.20
2022-08-03T04:19:47.369Z,23.23
2022-08-03T04:22:19.679Z,31.42
2022-08-03T04:24:51.294Z,22.92
2022-08-03T04:27:23.495Z,31.75
2022-08-03T04:29:54.683Z,32.85
2022-08-03T04:32:26.245Z,35.85
2022-08-03T04:34:54.277Z,30.60
2022-08-03T04:37:46.109Z,36.95
2022-08-03T04:40:37.206Z,40.05
2022-08-03T04:43:06.335Z,39.55
2022-08-03T04:45:35.745Z,36.53
2022-08-03T04:48:04.802Z,34.45
2022-08-03T04:50:32.735Z,31.63
2022-08-03T04:53:06.880Z,29.02
2022-08-03T04:55:35.759Z,29.88
2022-08-03T04:58:04.684Z,27.48
2022-08-03T05:00:32.397Z,24.38
2022-08-03T05:03:01.121Z,23.88
2022-08-03T05:05:48.714Z,21.60
2022-08-03T05:08:17.049Z,24.20
2022-08-03T05:10:48.534Z,23.20
2022-08-03T05:13:16.180Z,20.08
2022-08-03T05:15:43.822Z,24.98
2022-08-03T05:18:14.242Z,26.63
2022-08-03T05:20:42.102Z,25.00
2022-08-03T05:23:09.676Z,23.58
2022-08-03T05:25:37.274Z,24.58
2022-08-03T05:28:06.977Z,23.85
2022-08-03T05:30:34.801Z,20.45
2022-08-03T05:33:03.501Z,24.45
2022-08-03T05:35:57.921Z,23.13
2022-08-03T05:38:23.730Z,20.38
2022-08-03T05:41:20.990Z,25.83
2022-08-03T05:43:46.066Z,23.15
2022-08-03T05:46:13.700Z,19.58
2022-08-03T05:48:42.767Z,24.45
2022-08-03T05:51:13.729Z,22.67
2022-08-03T05:53:42.571Z,27.52
2022-08-03T05:56:14.942Z,33.50
2022-08-03T05:58:46.200Z,31.08
2022-08-03T06:01:14.398Z,25.70
2022-08-03T06:03:42.025Z,25.40
2022-08-03T06:06:09.667Z,25.17
2022-08-03T06:08:37.351Z,22.95
2022-08-03T06:11:05.134Z,25.25
2022-08-03T06:13:32.960Z,26.30
2022-08-03T06:16:03.096Z,24.48
2022-08-03T06:18:30.927Z,25.63
2022-08-03T06:20:58.637Z,26.75
2022-08-03T06:23:54.578Z,26.02
2022-08-03T06:26:25.138Z,36.75
2022-08-03T06:28:54.454Z,29.35
2022-08-03T06:31:32.948Z,26.73
2022-08-03T06:34:32.394Z,21.80
2022-08-03T06:36:51.246Z,18.98
2022-08-03T06:39:23.404Z,20.10
2022-08-03T06:41:52.475Z,25.73
2022-08-03T06:44:20.239Z,27.58
2022-08-03T06:46:48.018Z,30.30
2022-08-03T06:49:15.859Z,23.13
2022-08-03T06:52:04.887Z,24.55
2022-08-03T06:54:33.321Z,27.35
2022-08-03T06:57:01.261Z,25.77
2022-08-03T07:00:10.466Z,25.05
2022-08-03T07:02:19.637Z,19.02
2022-08-03T07:04:50.618Z,24.20
2022-08-03T07:07:19.539Z,26.48
2022-08-03T07:09:56.780Z,19.58
2022-08-03T07:12:26.936Z,33.25
2022-08-03T07:15:00.019Z,35.70
2022-08-03T07:17:30.127Z,25.60
2022-08-03T07:19:58.395Z,29.38
2022-08-03T07:22:26.582Z,27.42
2022-08-03T07:24:54.693Z,26.08
2022-08-03T07:27:22.539Z,25.38
2022-08-03T07:29:50.056Z,24.77
2022-08-03T07:32:18.053Z,25.27
2022-08-03T07:34:45.995Z,27.55
2022-08-03T07:37:13.503Z,26.30
2022-08-03T07:39:41.042Z,27.42
2022-08-03T07:42:08.655Z,25.33
2022-08-03T07:44:36.448Z,27.83
2022-08-03T07:47:03.982Z,28.20
2022-08-03T07:49:31.683Z,26.65
2022-08-03T07:52:18.745Z,29.63
2022-08-03T07:54:46.543Z,26.17
2022-08-03T07:57:14.170Z,27.15
2022-08-03T07:59:56.515Z,25.10
2022-08-03T08:02:27.694Z,26.50
2022-08-03T08:04:55.321Z,28.25
2022-08-03T08:07:23.190Z,25.92
2022-08-03T08:09:50.732Z,26.05
2022-08-03T08:12:18.537Z,26.48
2022-08-03T08:14:46.832Z,27.98
2022-08-03T08:17:14.779Z,25.02
2022-08-03T08:19:48.305Z,23.77
2022-08-03T08:22:23.503Z,27.27
2022-08-03T08:25:01.583Z,27.77
2022-08-03T08:28:29.703Z,24.70
2022-08-03T08:30:20.262Z,23.20
2022-08-03T08:32:58.164Z,21.35
2022-08-03T08:35:26.510Z,22.85
2022-08-03T08:37:54.108Z,25.65
2022-08-03T08:40:22.950Z,25.13
2022-08-03T08:42:59.008Z,35.00
2022-08-03T08:45:27.677Z,280.48
2022-08-03T08:48:01.059Z,999.90
2022-08-03T08:50:30.389Z,999.90
2022-08-03T08:53:02.176Z,25.25
2022-08-03T08:55:57.191Z,16.90
2022-08-03T08:58:21.687Z,18.67
2022-08-03T09:00:50.914Z,16.73
2022-08-03T09:03:29.050Z,15.88
2022-08-03T09:06:00.643Z,17.20
2022-08-03T09:08:29.926Z,14.93
2022-08-03T09:10:57.591Z,12.45
2022-08-03T09:13:25.397Z,14.55
2022-08-03T09:16:25.273Z,15.65
2022-08-03T09:18:54.470Z,15.20
2022-08-03T09:21:31.782Z,12.90
2022-08-03T09:24:04.669Z,12.48
2022-08-03T09:26:37.813Z,11.45
2022-08-03T09:29:15.027Z,13.35
2022-08-03T09:31:46.014Z,16.10
2022-08-03T09:34:16.890Z,13.20
2022-08-03T09:36:49.550Z,15.20
2022-08-03T09:39:19.581Z,14.20
2022-08-03T09:42:18.828Z,14.80
2022-08-03T09:44:52.552Z,17.08
2022-08-03T09:47:31.538Z,19.40
2022-08-03T09:50:02.151Z,83.10
2022-08-03T09:52:50.198Z,28.10
2022-08-03T09:56:04.991Z,18.88
2022-08-03T09:58:11.388Z,16.25
2022-08-03T10:01:01.907Z,16.48
2022-08-03T10:03:31.896Z,18.05
2022-08-03T10:06:00.221Z,17.67
2022-08-03T10:08:27.892Z,15.63
2022-08-03T10:10:56.797Z,12.55
2022-08-03T10:13:24.595Z,14.60
2022-08-03T10:16:21.969Z,12.55
2022-08-03T10:18:39.808Z,13.35
2022-08-03T10:21:10.574Z,13.40
2022-08-03T10:23:40.282Z,12.82
2022-08-03T10:26:12.011Z,13.63
2022-08-03T10:28:45.539Z,12.63
2022-08-03T10:31:14.538Z,12.13
2022-08-03T10:33:51.950Z,13.25
2022-08-03T10:36:27.509Z,11.88
2022-08-03T10:38:57.067Z,12.57
2022-08-03T10:41:30.701Z,12.13
2022-08-03T10:44:11.333Z,12.63
2022-08-03T10:46:44.505Z,12.63
2022-08-03T10:49:33.727Z,13.07
2022-08-03T10:52:11.379Z,12.50
2022-08-03T10:55:10.760Z,16.77
2022-08-03T10:57:47.422Z,13.68
2022-08-03T11:00:25.368Z,12.65
2022-08-03T11:03:08.863Z,11.85
2022-08-03T11:05:39.112Z,11.40
2022-08-03T11:08:23.300Z,11.40
2022-08-03T11:10:53.612Z,12.50
2022-08-03T11:13:24.163Z,11.77
2022-08-03T11:16:01.701Z,12.90
2022-08-03T11:18:31.690Z,11.95
2022-08-03T11:21:00.679Z,12.13
2022-08-03T11:24:04.234Z,11.50
2022-08-03T11:26:34.749Z,11.52
2022-08-03T11:29:37.555Z,11.05
2022-08-03T11:32:05.347Z,12.68
2022-08-03T11:34:32.935Z,12.15
2022-08-03T11:37:23.287Z,12.05
2022-08-03T11:39:53.321Z,13.57
2022-08-03T11:42:27.458Z,11.38
2022-08-03T11:44:59.745Z,13.93
2022-08-03T11:47:30.025Z,10.48
2022-08-03T11:50:02.148Z,14.60
2022-08-03T11:52:38.865Z,13.55
2022-08-03T11:55:11.289Z,17.10
2022-08-03T11:59:01.932Z,11.10
2022-08-03T12:00:30.293Z,10.77
2022-08-03T12:03:19.172Z,15.10
2022-08-03T12:05:52.775Z,11.52
2022-08-03T12:08:32.912Z,14.70
2022-08-03T12:11:05.767Z,11.23
2022-08-03T12:14:30.064Z,12.38
2022-08-03T12:16:30.222Z,9.93
2022-08-03T12:19:04.980Z,11.60
2022-08-03T12:21:32.668Z,10.95
2022-08-03T12:24:02.869Z,12.88
2022-08-03T12:26:42.314Z,12.57
2022-08-03T12:29:18.800Z,12.73
2022-08-03T12:31:46.670Z,10.75
2022-08-03T12:34:15.393Z,12.40
2022-08-03T12:36:54.485Z,11.85
2022-08-03T12:39:27.547Z,11.55
2022-08-03T12:41:56.397Z,13.32
2022-08-03T12:44:35.097Z,12.60
2022-08-03T12:47:04.064Z,12.55
2022-08-03T12:49:46.368Z,12.75
2022-08-03T12:52:14.510Z,51.97
2022-08-03T12:54:42.636Z,12.43
2022-08-03T12:57:15.943Z,11.82
2022-08-03T12:59:53.415Z,12.43
2022-08-03T13:02:23.447Z,12.68
2022-08-03T13:04:52.951Z,12.13
2022-08-03T13:07:22.893Z,10.80
2022-08-03T13:09:55.816Z,11.15
2022-08-03T13:12:26.268Z,10.85
2022-08-03T13:14:57.353Z,9.82
2022-08-03T13:17:25.938Z,8.80
2022-08-03T13:19:53.914Z,9.70
2022-08-03T13:22:23.969Z,10.93
2022-08-03T13:24:55.798Z,10.00
2022-08-03T13:28:12.470Z,10.25
2022-08-03T13:30:12.554Z,9.98
2022-08-03T13:32:40.151Z,10.63
2022-08-03T13:35:08.772Z,10.82
2022-08-03T13:37:36.560Z,9.98
2022-08-03T13:40:06.790Z,10.27
2022-08-03T13:42:35.878Z,11.02
2022-08-03T13:45:05.178Z,10.13
2022-08-03T13:47:32.862Z,14.90
2022-08-03T13:50:02.726Z,12.82
2022-08-03T13:52:33.816Z,11.32
2022-08-03T13:55:06.264Z,10.98
2022-08-03T13:58:04.970Z,10.63
2022-08-03T14:00:28.926Z,11.18
2022-08-03T14:03:07.981Z,10.57
2022-08-03T14:05:38.753Z,11.07
2022-08-03T14:08:07.133Z,12.43
2022-08-03T14:10:40.602Z,10.77
2022-08-03T14:13:08.940Z,11.98
2022-08-03T14:15:38.133Z,9.75
2022-08-03T14:18:15.540Z,10.27
2022-08-03T14:20:50.078Z,10.75
2022-08-03T14:23:19.297Z,10.95
2022-08-03T14:25:51.825Z,10.15
2022-08-03T14:28:24.516Z,10.65
2022-08-03T14:30:53.971Z,11.05
2022-08-03T14:33:22.474Z,11.93
2022-08-03T14:35:51.653Z,11.50
2022-08-03T14:38:19.490Z,10.63
2022-08-03T14:40:48.065Z,12.05
2022-08-03T14:43:17.971Z,11.38
2022-08-03T14:45:45.669Z,9.68
2022-08-03T14:50:33.567Z,9.93
2022-08-03T14:51:01.911Z,11.63
2022-08-03T14:53:30.138Z,11.18
2022-08-03T14:55:57.861Z,10.85
2022-08-03T14:58:26.758Z,10.43
2022-08-03T15:00:55.641Z,10.18
2022-08-03T15:03:25.118Z,10.20
2022-08-03T15:05:55.186Z,9.93
2022-08-03T15:08:24.503Z,11.90
2022-08-03T15:10:53.084Z,10.77
2022-08-03T15:13:20.967Z,10.63
2022-08-03T15:15:49.816Z,11.40
2022-08-03T15:18:18.218Z,10.52
2022-08-03T15:20:47.220Z,11.13
2022-08-03T15:23:15.940Z,10.30
2022-08-03T15:26:29.293Z,20.02
2022-08-03T15:28:32.668Z,32.63
2022-08-03T15:31:00.734Z,14.98
2022-08-03T15:33:29.120Z,10.68
2022-08-03T15:35:56.857Z,11.15
2022-08-03T15:38:26.084Z,10.90
2022-08-03T15:40:58.899Z,11.73
2022-08-03T15:43:26.481Z,12.70
2022-08-03T15:46:26.637Z,11.98
2022-08-03T15:48:41.692Z,12.18
2022-08-03T15:51:09.929Z,10.38
2022-08-03T15:53:38.336Z,10.07
2022-08-03T15:56:11.324Z,10.93
2022-08-03T15:59:04.665Z,10.50
2022-08-03T16:01:28.680Z,10.77
2022-08-03T16:03:56.448Z,10.60
2022-08-03T16:06:35.313Z,10.93
2022-08-03T16:09:23.520Z,11.23
2022-08-03T16:11:55.863Z,9.90
2022-08-03T16:14:34.243Z,11.23
2022-08-03T16:17:07.869Z,13.02
2022-08-03T16:19:35.687Z,13.38
2022-08-03T16:22:03.352Z,10.50
2022-08-03T16:24:31.799Z,10.90
2022-08-03T16:27:00.518Z,12.70
2022-08-03T16:29:28.682Z,10.45
2022-08-03T16:31:56.304Z,10.98
2022-08-03T16:34:24.260Z,12.10
2022-08-03T16:36:52.531Z,10.88
2022-08-03T16:39:20.054Z,11.95
2022-08-03T16:41:53.813Z,11.38
2022-08-03T16:44:30.548Z,10.65
2022-08-03T16:46:59.404Z,10.68
2022-08-03T16:49:53.690Z,36.90
2022-08-03T16:52:16.772Z,19.75
2022-08-03T16:54:52.686Z,15.50
2022-08-03T16:57:58.440Z,14.02
2022-08-03T17:00:12.183Z,13.07
2022-08-03T17:03:04.034Z,11.98
2022-08-03T17:05:43.591Z,11.95
2022-08-03T17:08:14.384Z,12.07
2022-08-03T17:10:45.062Z,12.25
2022-08-03T17:13:21.468Z,12.10
2022-08-03T17:15:57.958Z,14.40
2022-08-03T17:18:29.684Z,13.88
2022-08-03T17:20:58.790Z,13.30
2022-08-03T17:23:54.786Z,12.43
2022-08-03T17:26:23.519Z,12.13
2022-08-03T17:29:11.456Z,12.65
2022-08-03T17:31:49.022Z,14.50
2022-08-03T17:34:18.925Z,12.52
2022-08-03T17:37:03.825Z,13.90
2022-08-03T17:39:56.833Z,14.77
2022-08-03T17:42:29.477Z,14.48
2022-08-03T17:47:57.506Z,15.00
2022-08-03T17:50:45.912Z,16.10
2022-08-03T17:53:24.198Z,19.00
2022-08-03T17:56:04.857Z,17.05
2022-08-03T17:58:44.037Z,16.45
2022-08-03T18:01:59.640Z,17.13
2022-08-03T18:04:46.561Z,19.10
2022-08-03T18:10:23.176Z,17.80
2022-08-03T18:12:57.904Z,19.30
2022-08-03T18:15:53.193Z,17.75
2022-08-03T18:18:32.892Z,19.67
2022-08-03T18:21:06.767Z,18.55
2022-08-03T18:23:38.599Z,17.42
2022-08-03T18:26:10.791Z,19.23
2022-08-03T18:28:41.073Z,17.48
2022-08-03T18:31:33.084Z,18.58
2022-08-03T18:34:19.658Z,18.60
2022-08-03T18:36:55.862Z,17.70
2022-08-03T18:39:25.227Z,15.40
2022-08-03T18:41:52.915Z,21.67
2022-08-03T18:44:52.497Z,20.45
2022-08-03T18:47:50.547Z,21.65
2022-08-03T18:50:32.503Z,21.63
2022-08-03T18:53:19.659Z,20.80
2022-08-03T18:56:16.940Z,20.25
2022-08-03T18:59:02.185Z,21.27
2022-08-03T19:02:00.340Z,42.92
2022-08-03T19:04:47.700Z,24.20
2022-08-03T19:07:22.183Z,30.05
2022-08-03T19:09:55.604Z,999.90
2022-08-03T19:12:33.888Z,32.20
2022-08-03T19:15:12.944Z,526.15
2022-08-03T19:17:50.201Z,29.33
2022-08-03T19:20:25.103Z,276.92
2022-08-03T19:22:55.479Z,43.63
2022-08-03T19:25:35.142Z,40.70
2022-08-03T19:28:07.252Z,999.90
2022-08-03T19:30:39.049Z,999.90
2022-08-03T19:33:12.012Z,999.90
2022-08-03T19:35:54.820Z,999.90
2022-08-03T19:38:28.689Z,999.90
2022-08-03T19:43:57.771Z,999.90
2022-08-03T19:46:30.188Z,999.90
2022-08-03T19:49:10.560Z,999.90
2022-08-03T19:54:53.075Z,999.90
2022-08-03T19:57:24.697Z,999.90
2022-08-03T19:59:54.563Z,999.90
2022-08-03T20:02:26.051Z,999.90
2022-08-03T20:04:59.902Z,999.90
2022-08-03T20:07:48.324Z,999.90
2022-08-03T20:10:17.454Z,27.15
2022-08-03T20:12:46.829Z,999.90
2022-08-03T20:15:22.247Z,999.90
2022-08-03T20:17:59.507Z,999.90
2022-08-03T20:20:33.699Z,999.90
2022-08-03T20:23:18.101Z,999.90
2022-08-03T20:25:57.198Z,999.90
2022-08-03T20:28:32.761Z,999.90
2022-08-03T20:31:01.981Z,17.15
2022-08-03T20:33:46.371Z,999.90
2022-08-03T20:36:18.426Z,999.90
2022-08-03T20:38:48.271Z,999.90
2022-08-03T20:41:17.085Z,999.90
2022-08-03T20:43:45.931Z,999.90
2022-08-03T20:46:32.745Z,999.90
2022-08-03T20:49:04.662Z,999.90
2022-08-03T20:51:50.425Z,999.90
2022-08-03T20:54:30.590Z,8.93
2022-08-03T20:57:03.686Z,999.90
2022-08-03T20:59:50.167Z,999.90
2022-08-03T21:02:30.198Z,999.90
2022-08-03T21:05:08.667Z,999.90
2022-08-03T21:08:05.549Z,999.90
2022-08-03T21:10:38.552Z,999.90
2022-08-03T21:12:55.019Z,14.07
2022-08-03T21:13:02.694Z,999.90
2022-08-03T21:13:03.089Z,999.90
2022-08-03T21:13:04.327Z,18.90
2022-08-03T21:16:11.322Z,999.90
2022-08-03T21:18:42.629Z,999.90
2022-08-03T21:21:13.422Z,999.90
2022-08-03T21:23:48.987Z,999.90
2022-08-03T21:26:25.329Z,999.90
2022-08-03T21:28:55.199Z,10.90
2022-08-03T21:31:26.818Z,999.90
2022-08-03T21:33:57.148Z,999.90
2022-08-03T21:36:30.914Z,502.30
2022-08-03T21:38:59.491Z,999.90
2022-08-03T21:41:29.259Z,999.90
2022-08-03T21:43:57.871Z,999.90
2022-08-03T21:46:27.765Z,999.90
2022-08-03T21:50:06.133Z,999.90
2022-08-03T21:51:54.066Z,999.90
2022-08-03T21:54:27.181Z,999.90
2022-08-03T21:56:57.268Z,999.90
2022-08-03T21:59:26.613Z,999.90
2022-08-03T22:01:54.979Z,999.90
2022-08-03T22:04:50.740Z,999.90
2022-08-03T22:07:11.737Z,999.90
2022-08-03T22:09:39.624Z,999.90
2022-08-03T22:12:23.857Z,999.90
2022-08-03T22:15:01.088Z,999.90
2022-08-03T22:17:54.919Z,999.90
2022-08-03T22:20:22.413Z,999.90
2022-08-03T22:22:55.861Z,999.90
2022-08-03T22:25:29.224Z,999.90
2022-08-03T22:28:06.730Z,999.90
2022-08-03T22:30:54.875Z,999.90
2022-08-03T22:33:24.458Z,999.90
2022-08-03T22:36:06.965Z,999.90
2022-08-03T22:38:34.714Z,503.60
2022-08-03T22:41:03.219Z,15.80
2022-08-03T22:43:38.849Z,999.90
2022-08-03T22:46:13.453Z,751.67
2022-08-03T22:48:46.536Z,24.88
2022-08-03T22:51:15.991Z,20.00
2022-08-03T22:53:46.065Z,18.70
2022-08-03T22:56:14.507Z,15.48
2022-08-03T22:58:42.156Z,23.35
2022-08-03T23:01:13.168Z,999.90
2022-08-03T23:04:00.056Z,23.38
2022-08-03T23:06:37.714Z,25.10
2022-08-03T23:09:14.072Z,20.70
2022-08-03T23:11:45.710Z,22.55
2022-08-03T23:14:15.886Z,16.85
2022-08-03T23:16:44.874Z,17.83
2022-08-03T23:19:17.411Z,16.55
2022-08-03T23:22:02.279Z,15.38
2022-08-03T23:24:34.685Z,13.23
2022-08-03T23:27:06.922Z,13.65
2022-08-03T23:29:37.642Z,14.82
2022-08-03T23:32:06.573Z,15.50
2022-08-03T23:34:52.501Z,14.07
2022-08-03T23:37:20.632Z,14.02
2022-08-03T23:39:49.223Z,14.23
2022-08-03T23:42:19.563Z,15.07
2022-08-03T23:44:51.402Z,17.05
2022-08-03T23:47:18.886Z,16.30
2022-08-03T23:49:46.440Z,14.98
2022-08-03T23:52:54.968Z,14.48
2022-08-03T23:55:45.342Z,15.30
2022-08-03T23:58:21.842Z,14.50
